Time;durP1;ratioP1;P1;durP2;ratioP2;P2;SDS_P1;SDS_P2;PMS_P1;PMS_P2;Temp;Humidity;BMP_temperature;BMP_pressure;BME280_temperature;BME280_humidity;BME280_pressure;Samples;Min_cycle;Max_cycle;Signal;HPM_P1;HPM_P2
2021/10/05 00:02:15;;;;;;;6.65;5.93;;;;;;;;;;5012733;28;20270;-61
2021/10/05 00:04:43;;;;;;;7.22;5.90;;;;;;;;;;5009826;28;20482;-61
2021/10/05 00:07:08;;;;;;;7.82;6.50;;;;;;;;;;4993064;28;20026;-62
2021/10/05 00:09:33;;;;;;;6.67;5.80;;;;;;;;;;4992874;28;20036;-62
2021/10/05 00:11:59;;;;;;;7.38;5.93;;;;;;;;;;4991962;28;20740;-62
2021/10/05 00:14:24;;;;;;;6.72;6.03;;;;;;;;;;4991703;28;20037;-60
2021/10/05 00:16:49;;;;;;;7.60;6.55;;;;;;;;;;4991682;28;20390;-60
2021/10/05 00:19:15;;;;;;;8.35;6.20;;;;;;;;;;4992657;28;20050;-60
2021/10/05 00:21:43;;;;;;;7.30;6.20;;;;;;;;;;4992864;28;20378;-58
2021/10/05 00:24:10;;;;;;;8.23;5.82;;;;;;;;;;4992864;28;20094;-60
2021/10/05 00:26:41;;;;;;;9.35;6.53;;;;;;;;;;4991640;28;20033;-60
2021/10/05 00:29:09;;;;;;;7.72;5.90;;;;;;;;;;4992847;28;20089;-61
2021/10/05 00:31:35;;;;;;;7.75;6.22;;;;;;;;;;5011692;28;20673;-60
2021/10/05 00:34:00;;;;;;;8.13;6.00;;;;;;;;;;4999489;28;20018;-61
2021/10/05 00:36:29;;;;;;;9.38;6.15;;;;;;;;;;4993103;28;20269;-61
2021/10/05 00:38:58;;;;;;;8.23;6.85;;;;;;;;;;4993002;28;20022;-61
2021/10/05 00:41:29;;;;;;;7.50;6.30;;;;;;;;;;4992946;28;20014;-61
2021/10/05 00:43:57;;;;;;;8.02;6.57;;;;;;;;;;4992818;28;20097;-61
2021/10/05 00:46:22;;;;;;;8.32;6.72;;;;;;;;;;4992696;28;20029;-61
2021/10/05 00:48:57;;;;;;;7.82;6.97;;;;;;;;;;4991399;28;20026;-61
2021/10/05 00:51:22;;;;;;;8.02;6.40;;;;;;;;;;4991419;28;20029;-61
2021/10/05 00:53:57;;;;;;;7.93;6.38;;;;;;;;;;4991302;28;20109;-61
2021/10/05 00:56:23;;;;;;;8.98;6.63;;;;;;;;;;4992092;28;20498;-60
2021/10/05 00:58:48;;;;;;;7.32;6.55;;;;;;;;;;5010003;28;20084;-61
2021/10/05 01:01:15;;;;;;;7.90;7.00;;;;;;;;;;4996052;28;20031;-61
2021/10/05 01:03:40;;;;;;;8.13;7.20;;;;;;;;;;4991374;28;20105;-61
2021/10/05 01:06:06;;;;;;;8.85;7.55;;;;;;;;;;4992858;28;20457;-61
2021/10/05 01:08:34;;;;;;;9.83;7.40;;;;;;;;;;4992653;28;20023;-61
2021/10/05 01:11:02;;;;;;;9.95;7.85;;;;;;;;;;4992394;28;20285;-61
2021/10/05 01:13:32;;;;;;;9.88;8.25;;;;;;;;;;4975169;28;20358;-59
2021/10/05 01:16:00;;;;;;;9.70;8.18;;;;;;;;;;4992118;28;20029;-58
2021/10/05 01:18:25;;;;;;;9.75;8.10;;;;;;;;;;4991180;28;20108;-57
2021/10/05 01:20:53;;;;;;;9.03;7.63;;;;;;;;;;4992503;28;20493;-59
2021/10/05 01:23:22;;;;;;;9.68;7.80;;;;;;;;;;4994453;28;20261;-61
2021/10/05 01:25:50;;;;;;;9.95;8.07;;;;;;;;;;4994607;28;20388;-61
2021/10/05 01:28:22;;;;;;;9.48;7.53;;;;;;;;;;4995611;28;20096;-60
2021/10/05 01:30:50;;;;;;;9.70;7.28;;;;;;;;;;4995670;28;20112;-60
2021/10/05 01:33:16;;;;;;;11.45;7.65;;;;;;;;;;4995858;28;20381;-60
2021/10/05 01:35:41;;;;;;;9.80;7.97;;;;;;;;;;4995736;28;20026;-60
2021/10/05 01:38:07;;;;;;;9.15;7.57;;;;;;;;;;4995749;28;20026;-60
2021/10/05 01:40:32;;;;;;;10.38;8.05;;;;;;;;;;4995631;28;20058;-60
2021/10/05 01:42:57;;;;;;;9.43;7.40;;;;;;;;;;4995579;28;20072;-59
2021/10/05 01:45:22;;;;;;;10.17;7.30;;;;;;;;;;4995148;28;20261;-57
2021/10/05 01:47:57;;;;;;;8.80;7.22;;;;;;;;;;4995458;28;20348;-60
2021/10/05 01:50:28;;;;;;;8.45;7.10;;;;;;;;;;4994466;28;20441;-60
2021/10/05 01:52:56;;;;;;;9.25;7.07;;;;;;;;;;4995553;28;20030;-60
2021/10/05 01:55:22;;;;;;;7.78;6.78;;;;;;;;;;5007366;28;20054;-60
2021/10/05 01:57:48;;;;;;;9.57;7.72;;;;;;;;;;5003314;28;20056;-60
2021/10/05 02:00:13;;;;;;;9.02;6.55;;;;;;;;;;5006365;28;20019;-59
2021/10/05 02:02:42;;;;;;;9.45;6.82;;;;;;;;;;5008781;28;20481;-60
2021/10/05 02:05:07;;;;;;;8.45;6.68;;;;;;;;;;5013434;28;20473;-56
2021/10/05 02:07:33;;;;;;;7.88;6.03;;;;;;;;;;5014699;28;20033;-59
2021/10/05 02:09:58;;;;;;;8.93;6.38;;;;;;;;;;5014604;28;20053;-58
2021/10/05 02:12:27;;;;;;;8.35;6.40;;;;;;;;;;5014465;28;20489;-60
2021/10/05 02:14:52;;;;;;;9.95;6.20;;;;;;;;;;5013224;28;20033;-61
2021/10/05 02:17:20;;;;;;;9.73;6.25;;;;;;;;;;5014539;28;20014;-61
2021/10/05 02:19:45;;;;;;;7.32;5.78;;;;;;;;;;5013293;28;20385;-61
2021/10/05 02:22:13;;;;;;;6.93;5.75;;;;;;;;;;5014400;28;20029;-61
2021/10/05 02:27:07;;;;;;;8.02;6.00;;;;;;;;;;5014220;28;20079;-61
2021/10/05 02:29:36;;;;;;;9.30;6.07;;;;;;;;;;5013109;28;20022;-60
2021/10/05 02:32:08;;;;;;;7.57;5.90;;;;;;;;;;5014285;28;20036;-61
2021/10/05 02:34:34;;;;;;;9.07;5.78;;;;;;;;;;5013331;28;20026;-61
2021/10/05 02:37:05;;;;;;;7.43;5.65;;;;;;;;;;5014084;28;20493;-61
2021/10/05 02:39:31;;;;;;;8.45;6.10;;;;;;;;;;5014061;28;20022;-60
2021/10/05 02:41:56;;;;;;;7.82;6.22;;;;;;;;;;5012846;28;20115;-61
2021/10/05 02:44:22;;;;;;;8.90;6.47;;;;;;;;;;5012936;28;20018;-61
2021/10/05 02:46:47;;;;;;;9.77;6.10;;;;;;;;;;5013944;28;20469;-61
2021/10/05 02:49:13;;;;;;;10.02;6.95;;;;;;;;;;5014014;28;20026;-61
2021/10/05 02:51:38;;;;;;;8.60;6.45;;;;;;;;;;5013762;28;20018;-61
2021/10/05 02:54:04;;;;;;;9.73;6.60;;;;;;;;;;5013836;28;20109;-61
2021/10/05 02:56:29;;;;;;;9.27;7.22;;;;;;;;;;5013534;28;20296;-61
2021/10/05 02:58:57;;;;;;;9.65;6.45;;;;;;;;;;5013803;28;20018;-60
2021/10/05 03:01:22;;;;;;;8.80;6.80;;;;;;;;;;4999228;28;20018;-60
2021/10/05 03:03:51;;;;;;;8.60;6.57;;;;;;;;;;5013675;28;20017;-60
2021/10/05 03:06:16;;;;;;;9.10;7.05;;;;;;;;;;5013551;28;20025;-60
2021/10/05 03:08:42;;;;;;;7.05;5.90;;;;;;;;;;5013557;28;20030;-61
2021/10/05 03:11:10;;;;;;;8.75;6.97;;;;;;;;;;5012340;28;20034;-61
2021/10/05 03:13:45;;;;;;;8.35;6.70;;;;;;;;;;5013572;28;20022;-61
2021/10/05 03:16:10;;;;;;;10.65;7.43;;;;;;;;;;5013345;28;20029;-61
2021/10/05 03:18:35;;;;;;;9.18;7.07;;;;;;;;;;5013356;28;20102;-61
2021/10/05 03:21:01;;;;;;;9.52;6.57;;;;;;;;;;5012230;28;20026;-61
2021/10/05 03:23:26;;;;;;;9.20;6.60;;;;;;;;;;5012999;28;20025;-61
2021/10/05 03:25:51;;;;;;;8.65;6.45;;;;;;;;;;5013279;28;20504;-61
2021/10/05 03:28:19;;;;;;;9.70;6.83;;;;;;;;;;5013299;28;20018;-60
2021/10/05 03:30:51;;;;;;;8.15;6.47;;;;;;;;;;5012349;28;20620;-61
2021/10/05 03:33:16;;;;;;;8.23;5.93;;;;;;;;;;5013133;28;20083;-59
2021/10/05 03:35:44;;;;;;;8.90;6.65;;;;;;;;;;5011722;28;20042;-61
2021/10/05 03:38:18;;;;;;;9.43;6.82;;;;;;;;;;5013389;28;20524;-58
2021/10/05 03:40:44;;;;;;;8.07;6.22;;;;;;;;;;5013063;28;20045;-57
2021/10/05 03:43:09;;;;;;;8.95;6.28;;;;;;;;;;5011792;28;20477;-59
2021/10/05 03:45:34;;;;;;;8.98;6.57;;;;;;;;;;5012632;28;20014;-61
2021/10/05 03:48:03;;;;;;;9.23;6.78;;;;;;;;;;5012202;28;20038;-61
2021/10/05 03:50:30;;;;;;;8.38;6.38;;;;;;;;;;5011498;28;20018;-60
2021/10/05 03:52:58;;;;;;;8.73;6.38;;;;;;;;;;5012827;28;20045;-58
2021/10/05 03:55:32;;;;;;;9.23;6.57;;;;;;;;;;5012381;28;20022;-58
2021/10/05 03:58:01;;;;;;;9.35;6.88;;;;;;;;;;5011745;28;20053;-60
2021/10/05 04:00:26;;;;;;;8.60;6.50;;;;;;;;;;5002758;28;20042;-60
2021/10/05 04:02:51;;;;;;;8.90;6.57;;;;;;;;;;4993562;28;20489;-61
2021/10/05 04:05:17;;;;;;;10.07;6.68;;;;;;;;;;5012634;28;20261;-60
2021/10/05 04:07:42;;;;;;;9.45;6.47;;;;;;;;;;5012692;28;20025;-61
2021/10/05 04:10:10;;;;;;;9.55;6.38;;;;;;;;;;5011408;28;20026;-60
2021/10/05 04:12:36;;;;;;;5.60;4.38;;;;;;;;;;5012609;28;20026;-60
2021/10/05 04:15:02;;;;;;;5.63;4.65;;;;;;;;;;5011230;28;20029;-61
2021/10/05 04:17:29;;;;;;;5.15;4.20;;;;;;;;;;5011304;28;20054;-61
2021/10/05 04:19:54;;;;;;;5.25;4.18;;;;;;;;;;5011349;28;20029;-60
2021/10/05 04:22:20;;;;;;;4.53;3.83;;;;;;;;;;5012505;28;20065;-58
2021/10/05 04:24:45;;;;;;;4.47;3.78;;;;;;;;;;5012717;28;20267;-60
2021/10/05 04:27:16;;;;;;;4.82;4.00;;;;;;;;;;5012403;28;20037;-60
2021/10/05 04:29:42;;;;;;;4.05;3.53;;;;;;;;;;5011283;28;20068;-60
2021/10/05 04:32:14;;;;;;;4.40;4.00;;;;;;;;;;5011055;28;20412;-60
2021/10/05 04:34:39;;;;;;;3.75;3.35;;;;;;;;;;5012220;28;20084;-60
2021/10/05 04:37:05;;;;;;;4.95;3.75;;;;;;;;;;5012405;28;20499;-60
2021/10/05 04:39:30;;;;;;;5.50;3.30;;;;;;;;;;5012483;28;20014;-59
2021/10/05 04:41:59;;;;;;;3.92;3.25;;;;;;;;;;5012390;28;20018;-60
2021/10/05 04:44:24;;;;;;;4.72;2.92;;;;;;;;;;5012422;28;20393;-59
2021/10/05 04:46:55;;;;;;;4.00;3.40;;;;;;;;;;5012118;28;20034;-56
2021/10/05 04:49:30;;;;;;;3.83;3.20;;;;;;;;;;5011165;28;20739;-61
2021/10/05 04:52:01;;;;;;;3.90;3.10;;;;;;;;;;5012353;28;20125;-61
2021/10/05 04:54:27;;;;;;;3.13;2.83;;;;;;;;;;5012261;28;20164;-61
2021/10/05 04:56:52;;;;;;;4.07;3.35;;;;;;;;;;5010321;23;20169;-60
2021/10/05 04:59:20;;;;;;;3.63;3.22;;;;;;;;;;4995119;28;20158;-61
2021/10/05 05:01:49;;;;;;;4.47;3.58;;;;;;;;;;4996134;28;20078;-60
2021/10/05 05:04:16;;;;;;;5.35;4.10;;;;;;;;;;4996224;28;20069;-62
2021/10/05 05:06:44;;;;;;;5.20;4.18;;;;;;;;;;5007735;28;20041;-62
2021/10/05 05:09:10;;;;;;;4.20;3.80;;;;;;;;;;5015805;28;20107;-62
2021/10/05 05:11:35;;;;;;;5.57;3.95;;;;;;;;;;5015769;28;20480;-61
2021/10/05 05:14:06;;;;;;;5.53;4.22;;;;;;;;;;5015669;28;20022;-62
2021/10/05 05:16:32;;;;;;;5.57;3.88;;;;;;;;;;5008925;28;20030;-61
2021/10/05 05:18:57;;;;;;;5.10;4.17;;;;;;;;;;5015601;28;20025;-57
2021/10/05 05:21:25;;;;;;;7.13;4.68;;;;;;;;;;5010855;28;20277;-56
2021/10/05 05:23:51;;;;;;;5.38;4.75;;;;;;;;;;5008327;28;20046;-59
2021/10/05 05:26:16;;;;;;;5.40;4.63;;;;;;;;;;5002678;28;20056;-59
2021/10/05 05:28:41;;;;;;;7.07;4.90;;;;;;;;;;5015485;28;20022;-58
2021/10/05 05:31:12;;;;;;;7.67;5.00;;;;;;;;;;5006469;28;20369;-56
2021/10/05 05:33:38;;;;;;;5.15;4.20;;;;;;;;;;5010495;28;20368;-61
2021/10/05 05:36:03;;;;;;;5.83;4.47;;;;;;;;;;5012983;28;20104;-61
2021/10/05 05:38:28;;;;;;;5.03;4.20;;;;;;;;;;5003956;28;20639;-63
2021/10/05 05:40:54;;;;;;;8.80;5.18;;;;;;;;;;5009453;28;20014;-62
2021/10/05 05:43:19;;;;;;;4.85;4.35;;;;;;;;;;5002632;28;20041;-61
2021/10/05 05:45:45;;;;;;;5.05;4.53;;;;;;;;;;4997051;28;20030;-59
2021/10/05 05:48:10;;;;;;;7.38;4.38;;;;;;;;;;5004612;28;20020;-62
2021/10/05 05:50:35;;;;;;;5.05;4.03;;;;;;;;;;5011549;28;20472;-62
2021/10/05 05:53:01;;;;;;;5.20;4.10;;;;;;;;;;5002559;28;20026;-63
2021/10/05 05:55:26;;;;;;;5.38;4.45;;;;;;;;;;5003437;28;20379;-63
2021/10/05 05:57:51;;;;;;;5.10;4.23;;;;;;;;;;5025256;28;20021;-63
2021/10/05 06:00:17;;;;;;;5.72;4.85;;;;;;;;;;5025301;28;20670;-61
2021/10/05 06:02:42;;;;;;;8.15;4.53;;;;;;;;;;5014711;28;20052;-57
2021/10/05 06:05:08;;;;;;;5.80;4.38;;;;;;;;;;4929573;28;20034;-59
2021/10/05 06:07:33;;;;;;;4.93;4.35;;;;;;;;;;5023222;28;20412;-61
2021/10/05 06:09:59;;;;;;;5.43;4.50;;;;;;;;;;5018312;28;20018;-59
2021/10/05 06:12:29;;;;;;;5.53;4.70;;;;;;;;;;5021730;28;20018;-57
2021/10/05 06:14:54;;;;;;;5.38;4.18;;;;;;;;;;5026733;28;20492;-59
2021/10/05 06:17:19;;;;;;;5.03;4.53;;;;;;;;;;5029732;28;20092;-59
2021/10/05 06:19:45;;;;;;;4.67;4.03;;;;;;;;;;5019797;28;20265;-62
2021/10/05 06:22:10;;;;;;;9.02;4.00;;;;;;;;;;5020591;28;20253;-62
2021/10/05 06:24:35;;;;;;;8.20;4.33;;;;;;;;;;5024032;28;20039;-62
2021/10/05 06:27:00;;;;;;;3.85;3.47;;;;;;;;;;5026047;28;21240;-58
2021/10/05 06:29:26;;;;;;;4.85;3.65;;;;;;;;;;5016356;28;20025;-61
2021/10/05 06:31:51;;;;;;;3.08;2.60;;;;;;;;;;5016424;28;20017;-61
2021/10/05 06:34:16;;;;;;;3.05;2.50;;;;;;;;;;5032821;28;20022;-60
2021/10/05 06:36:41;;;;;;;3.00;2.60;;;;;;;;;;5033927;28;20021;-61
2021/10/05 06:39:07;;;;;;;3.13;2.80;;;;;;;;;;5033914;28;20291;-62
2021/10/05 06:41:32;;;;;;;2.60;2.33;;;;;;;;;;5033983;28;20261;-60
2021/10/05 06:43:57;;;;;;;3.30;2.70;;;;;;;;;;5033890;28;20263;-57
2021/10/05 06:46:22;;;;;;;5.82;4.07;;;;;;;;;;5016108;28;20284;-57
2021/10/05 06:48:48;;;;;;;4.13;3.05;;;;;;;;;;5033944;28;20108;-58
2021/10/05 06:51:13;;;;;;;4.32;3.65;;;;;;;;;;5016119;28;20025;-59
2021/10/05 06:53:38;;;;;;;4.53;3.10;;;;;;;;;;5016151;28;20052;-58
2021/10/05 06:56:04;;;;;;;3.00;2.60;;;;;;;;;;5033631;28;20327;-60
2021/10/05 06:58:29;;;;;;;3.50;3.10;;;;;;;;;;5033834;28;20101;-61
2021/10/05 07:00:54;;;;;;;3.93;3.00;;;;;;;;;;5003668;28;20022;-60
2021/10/05 07:03:20;;;;;;;3.40;2.60;;;;;;;;;;5014130;28;20264;-60
2021/10/05 07:05:45;;;;;;;3.63;3.15;;;;;;;;;;5013930;28;20275;-60
2021/10/05 07:08:14;;;;;;;3.08;2.58;;;;;;;;;;4996362;28;20492;-60
2021/10/05 07:10:40;;;;;;;3.50;2.55;;;;;;;;;;5013579;28;20064;-61
2021/10/05 07:13:05;;;;;;;3.20;2.47;;;;;;;;;;5013327;28;20026;-62
2021/10/05 07:15:31;;;;;;;2.88;2.28;;;;;;;;;;5013440;28;20076;-62
2021/10/05 07:17:57;;;;;;;2.50;2.20;;;;;;;;;;5013526;28;20017;-61
2021/10/05 07:20:22;;;;;;;2.60;2.38;;;;;;;;;;5011800;28;20014;-62
2021/10/05 07:22:48;;;;;;;3.17;2.60;;;;;;;;;;5013419;28;20040;-61
2021/10/05 07:25:13;;;;;;;3.58;2.70;;;;;;;;;;4995663;28;20030;-57
2021/10/05 07:27:38;;;;;;;3.85;2.67;;;;;;;;;;5013328;28;20058;-59
2021/10/05 07:30:05;;;;;;;3.42;2.80;;;;;;;;;;4995908;28;20026;-58
2021/10/05 07:32:30;;;;;;;4.10;2.47;;;;;;;;;;4995566;28;20028;-59
2021/10/05 07:34:55;;;;;;;3.65;2.35;;;;;;;;;;4995674;28;20025;-55
2021/10/05 07:37:21;;;;;;;3.38;2.70;;;;;;;;;;5013054;28;20477;-60
2021/10/05 07:39:46;;;;;;;3.30;2.37;;;;;;;;;;5012879;28;20022;-60
2021/10/05 07:42:13;;;;;;;3.20;2.50;;;;;;;;;;5012914;28;20265;-60
2021/10/05 07:44:38;;;;;;;3.00;2.30;;;;;;;;;;5011925;28;20033;-60
2021/10/05 07:47:03;;;;;;;3.00;2.50;;;;;;;;;;4995407;28;20030;-60
2021/10/05 07:49:29;;;;;;;2.90;2.53;;;;;;;;;;4995366;28;20018;-61
2021/10/05 07:51:54;;;;;;;3.03;2.60;;;;;;;;;;4995819;28;20269;-60
2021/10/05 07:54:19;;;;;;;3.78;2.55;;;;;;;;;;5011609;28;20034;-61
2021/10/05 07:56:45;;;;;;;4.95;2.80;;;;;;;;;;5013244;28;20397;-60
2021/10/05 07:59:12;;;;;;;3.37;2.73;;;;;;;;;;5014977;28;20020;-60
2021/10/05 08:01:38;;;;;;;2.72;2.20;;;;;;;;;;5013677;28;20265;-60
2021/10/05 08:04:04;;;;;;;2.60;2.40;;;;;;;;;;5011454;28;20390;-60
2021/10/05 08:06:30;;;;;;;2.55;2.15;;;;;;;;;;4995263;28;20756;-62
2021/10/05 08:08:55;;;;;;;5.63;2.53;;;;;;;;;;4994864;28;20041;-59
2021/10/05 08:11:23;;;;;;;4.77;2.40;;;;;;;;;;5012657;28;20041;-58
2021/10/05 08:13:48;;;;;;;2.40;2.20;;;;;;;;;;5012687;28;20280;-60
2021/10/05 08:16:14;;;;;;;2.70;2.50;;;;;;;;;;5012484;28;20029;-58
2021/10/05 08:18:39;;;;;;;3.17;2.58;;;;;;;;;;5012653;28;20108;-60
2021/10/05 08:21:04;;;;;;;3.77;2.70;;;;;;;;;;5012463;28;20429;-61
2021/10/05 08:23:30;;;;;;;3.17;2.78;;;;;;;;;;4994763;28;20620;-60
2021/10/05 08:25:55;;;;;;;4.38;3.42;;;;;;;;;;5012603;28;20026;-60
2021/10/05 08:28:21;;;;;;;4.13;3.42;;;;;;;;;;5012572;28;20033;-61
2021/10/05 08:30:47;;;;;;;4.75;3.20;;;;;;;;;;5012129;28;20022;-61
2021/10/05 08:33:13;;;;;;;4.60;2.80;;;;;;;;;;5014666;28;20072;-61
2021/10/05 08:35:38;;;;;;;5.28;3.33;;;;;;;;;;5016269;28;20030;-61
2021/10/05 08:38:04;;;;;;;5.00;2.73;;;;;;;;;;5016203;28;20072;-60
2021/10/05 08:40:31;;;;;;;3.05;2.38;;;;;;;;;;5016301;28;20367;-61
2021/10/05 08:42:56;;;;;;;4.10;2.28;;;;;;;;;;5016222;28;20372;-61
2021/10/05 08:45:21;;;;;;;3.92;2.33;;;;;;;;;;4998543;28;20036;-60
2021/10/05 08:47:47;;;;;;;4.18;2.47;;;;;;;;;;5016168;28;20025;-60
2021/10/05 08:50:13;;;;;;;3.45;2.10;;;;;;;;;;5016816;28;20029;-60
2021/10/05 08:52:38;;;;;;;3.42;2.95;;;;;;;;;;5014643;28;20026;-60
2021/10/05 08:55:04;;;;;;;4.63;3.30;;;;;;;;;;5014609;28;20486;-60
2021/10/05 08:57:30;;;;;;;4.18;3.50;;;;;;;;;;5022680;28;20124;-61
2021/10/05 08:59:55;;;;;;;5.15;3.85;;;;;;;;;;5031237;28;20477;-60
2021/10/05 09:02:21;;;;;;;5.35;3.88;;;;;;;;;;5015975;28;20022;-61
2021/10/05 09:04:47;;;;;;;6.15;4.10;;;;;;;;;;5016082;28;20036;-59
2021/10/05 09:07:20;;;;;;;6.65;4.45;;;;;;;;;;5015706;28;20025;-60
2021/10/05 09:09:45;;;;;;;;;;;;;;;;;;5016247;28;20026;-61
2021/10/05 09:12:20;;;;;;;5.25;4.13;;;;;;;;;;5015882;28;19905;-60
2021/10/05 09:14:47;;;;;;;5.90;3.80;;;;;;;;;;5015725;28;20030;-61
2021/10/05 09:17:17;;;;;;;6.60;4.30;;;;;;;;;;5015710;28;20009;-60
2021/10/05 09:19:42;;;;;;;10.52;4.70;;;;;;;;;;5015448;28;20006;-59
2021/10/05 09:22:14;;;;;;;6.47;4.67;;;;;;;;;;5015445;28;20419;-59
2021/10/05 09:24:39;;;;;;;8.32;4.85;;;;;;;;;;5015674;28;20260;-60
2021/10/05 09:27:05;;;;;;;6.10;4.03;;;;;;;;;;5014168;28;20392;-60
2021/10/05 09:29:34;;;;;;;7.72;4.60;;;;;;;;;;5015534;28;20304;-58
2021/10/05 09:32:00;;;;;;;7.55;4.10;;;;;;;;;;4997477;28;20025;-57
2021/10/05 09:34:44;;;;;;;6.33;4.50;;;;;;;;;;5013981;28;20083;-60
2021/10/05 09:37:14;;;;;;;6.53;4.35;;;;;;;;;;5013944;28;20264;-60
2021/10/05 09:39:45;;;;;;;5.97;4.10;;;;;;;;;;5028646;28;20380;-63
2021/10/05 09:42:16;;;;;;;6.78;4.40;;;;;;;;;;5013325;28;20048;-62
2021/10/05 09:44:42;;;;;;;5.90;4.35;;;;;;;;;;5018406;28;20022;-63
2021/10/05 09:47:07;;;;;;;6.47;3.93;;;;;;;;;;5014828;28;20034;-63
2021/10/05 09:49:39;;;;;;;8.43;4.45;;;;;;;;;;5033535;28;20268;-63
2021/10/05 09:52:05;;;;;;;6.25;4.20;;;;;;;;;;5034690;28;20025;-62
2021/10/05 09:54:30;;;;;;;6.18;4.50;;;;;;;;;;5014696;28;20025;-61
2021/10/05 09:56:55;;;;;;;7.63;4.80;;;;;;;;;;5021607;28;20045;-62
2021/10/05 09:59:21;;;;;;;5.78;3.90;;;;;;;;;;5032982;28;20252;-62
2021/10/05 10:01:46;;;;;;;7.25;3.80;;;;;;;;;;5032610;28;20095;-61
2021/10/05 10:04:11;;;;;;;7.63;4.25;;;;;;;;;;5024869;28;20018;-59
2021/10/05 10:06:38;;;;;;;4.87;3.50;;;;;;;;;;5026395;28;20018;-62
2021/10/05 10:09:04;;;;;;;4.82;3.30;;;;;;;;;;5026370;28;20263;-62
2021/10/05 10:11:29;;;;;;;4.70;2.78;;;;;;;;;;5023890;28;20416;-61
2021/10/05 10:13:54;;;;;;;6.10;2.37;;;;;;;;;;5008003;28;20026;-62
2021/10/05 10:16:23;;;;;;;3.30;2.38;;;;;;;;;;4996619;28;20288;-60
2021/10/05 10:18:49;;;;;;;4.45;2.67;;;;;;;;;;5025037;28;20358;-60
2021/10/05 10:21:16;;;;;;;3.10;2.30;;;;;;;;;;5015277;28;20026;-62
2021/10/05 10:23:41;;;;;;;3.47;2.13;;;;;;;;;;5021081;28;20014;-62
2021/10/05 10:26:07;;;;;;;4.47;2.47;;;;;;;;;;5016082;28;20365;-62
2021/10/05 10:28:33;;;;;;;5.47;2.70;;;;;;;;;;5020673;28;20264;-62
2021/10/05 10:31:00;;;;;;;4.15;2.35;;;;;;;;;;5013912;28;20531;-62
2021/10/05 10:33:26;;;;;;;3.78;2.03;;;;;;;;;;5028854;28;20056;-61
2021/10/05 10:35:55;;;;;;;5.68;2.00;;;;;;;;;;5013950;28;20029;-62
2021/10/05 10:38:21;;;;;;;4.15;1.50;;;;;;;;;;5021907;28;20036;-62
2021/10/05 10:40:47;;;;;;;5.20;1.60;;;;;;;;;;5021933;28;20021;-62
2021/10/05 10:43:13;;;;;;;1.33;1.05;;;;;;;;;;5013378;28;20435;-62
2021/10/05 10:46:08;;;;;;;3.50;1.30;;;;;;;;;;5013290;28;20074;-62
2021/10/05 10:48:35;;;;;;;0.98;0.88;;;;;;;;;;5006130;28;20046;-62
2021/10/05 10:51:02;;;;;;;2.05;1.02;;;;;;;;;;5013771;28;20069;-61
2021/10/05 10:53:36;;;;;;;2.97;1.55;;;;;;;;;;5013543;28;20029;-62
2021/10/05 10:56:01;;;;;;;1.58;0.80;;;;;;;;;;5013237;28;20053;-62
2021/10/05 10:58:40;;;;;;;1.67;1.00;;;;;;;;;;5028391;28;20025;-60
2021/10/05 11:01:05;;;;;;;1.30;0.90;;;;;;;;;;5019336;28;20025;-62
2021/10/05 11:03:30;;;;;;;2.40;1.13;;;;;;;;;;5012800;28;20376;-61
2021/10/05 11:05:56;;;;;;;2.57;0.90;;;;;;;;;;5013346;28;20481;-60
2021/10/05 11:08:21;;;;;;;0.98;0.90;;;;;;;;;;5013630;28;20273;-62
2021/10/05 11:10:46;;;;;;;2.50;0.90;;;;;;;;;;5021661;28;20021;-62
2021/10/05 11:13:11;;;;;;;2.08;1.20;;;;;;;;;;5021971;28;20265;-62
2021/10/05 11:15:38;;;;;;;1.77;1.10;;;;;;;;;;5016131;28;20030;-62
2021/10/05 11:18:03;;;;;;;1.17;0.90;;;;;;;;;;5026996;28;20163;-62
2021/10/05 11:20:31;;;;;;;1.73;1.15;;;;;;;;;;5008407;28;20112;-62
2021/10/05 11:22:58;;;;;;;2.15;0.98;;;;;;;;;;5015195;28;20014;-62
2021/10/05 11:25:24;;;;;;;1.63;1.02;;;;;;;;;;5026302;28;20492;-62
2021/10/05 11:27:49;;;;;;;1.70;0.90;;;;;;;;;;5023688;28;20032;-62
2021/10/05 11:30:14;;;;;;;2.88;0.80;;;;;;;;;;5022266;28;20036;-62
2021/10/05 11:32:40;;;;;;;1.08;0.82;;;;;;;;;;5019309;28;20014;-62
2021/10/05 11:35:05;;;;;;;1.40;0.70;;;;;;;;;;5026499;28;20026;-62
2021/10/05 11:37:31;;;;;;;0.88;0.80;;;;;;;;;;5022957;28;20643;-61
2021/10/05 11:39:57;;;;;;;1.45;0.93;;;;;;;;;;5017350;28;20017;-62
2021/10/05 11:42:24;;;;;;;0.95;0.70;;;;;;;;;;5032799;28;20020;-62
2021/10/05 11:44:49;;;;;;;0.95;0.60;;;;;;;;;;5017434;28;20049;-62
2021/10/05 11:47:16;;;;;;;3.63;0.90;;;;;;;;;;5022038;28;20049;-61
2021/10/05 11:49:45;;;;;;;2.25;1.08;;;;;;;;;;5016228;28;20267;-61
2021/10/05 11:52:15;;;;;;;1.75;0.98;;;;;;;;;;5023755;28;20266;-62
2021/10/05 11:54:40;;;;;;;1.52;0.80;;;;;;;;;;5016929;28;20024;-62
2021/10/05 11:57:12;;;;;;;0.90;0.60;;;;;;;;;;5018870;28;20041;-63
2021/10/05 11:59:37;;;;;;;1.00;0.60;;;;;;;;;;5032254;28;20411;-62
2021/10/05 12:02:04;;;;;;;1.60;0.50;;;;;;;;;;5015496;28;20021;-62
2021/10/05 12:04:29;;;;;;;1.17;0.80;;;;;;;;;;5007559;28;20021;-62
2021/10/05 12:07:20;;;;;;;1.02;0.75;;;;;;;;;;5024762;28;20516;-62
2021/10/05 12:09:56;;;;;;;0.70;0.57;;;;;;;;;;5006613;28;20125;-63
2021/10/05 12:12:22;;;;;;;1.13;0.93;;;;;;;;;;5018135;28;20021;-62
2021/10/05 12:14:54;;;;;;;0.65;0.60;;;;;;;;;;5016308;28;20063;-61
2021/10/05 12:17:20;;;;;;;1.60;0.88;;;;;;;;;;5006676;28;20025;-62
2021/10/05 12:19:48;;;;;;;1.33;0.70;;;;;;;;;;5019997;28;20076;-62
2021/10/05 12:22:18;;;;;;;1.65;1.00;;;;;;;;;;4993325;28;20025;-61
2021/10/05 12:24:47;;;;;;;1.60;1.15;;;;;;;;;;5011103;28;20493;-62
2021/10/05 12:27:16;;;;;;;2.08;1.10;;;;;;;;;;5011077;28;20071;-62
2021/10/05 12:29:45;;;;;;;1.98;0.73;;;;;;;;;;5010910;28;20412;-62
2021/10/05 12:32:10;;;;;;;1.80;0.80;;;;;;;;;;5011036;28;20051;-61
2021/10/05 12:34:37;;;;;;;1.65;1.02;;;;;;;;;;5010631;28;20021;-62
2021/10/05 12:37:03;;;;;;;0.70;0.70;;;;;;;;;;4993291;28;20018;-62
2021/10/05 12:39:29;;;;;;;4.22;0.60;;;;;;;;;;5011078;28;20028;-63
2021/10/05 12:41:58;;;;;;;1.10;0.70;;;;;;;;;;5010500;28;20026;-61
2021/10/05 12:44:24;;;;;;;3.22;0.90;;;;;;;;;;5010753;28;20040;-61
2021/10/05 12:46:56;;;;;;;2.00;0.90;;;;;;;;;;5021440;28;20014;-60
2021/10/05 12:49:22;;;;;;;0.90;0.70;;;;;;;;;;5030531;28;20021;-61
2021/10/05 12:51:50;;;;;;;0.95;0.75;;;;;;;;;;5029109;28;20021;-61
2021/10/05 12:54:16;;;;;;;1.88;0.80;;;;;;;;;;5029013;28;20025;-60
2021/10/05 12:56:42;;;;;;;0.60;0.60;;;;;;;;;;5030104;28;20046;-61
2021/10/05 12:59:07;;;;;;;0.77;0.70;;;;;;;;;;5019033;28;20097;-62
2021/10/05 13:01:36;;;;;;;0.70;0.70;;;;;;;;;;4991132;28;20029;-61
2021/10/05 13:04:11;;;;;;;1.00;0.90;;;;;;;;;;5009595;28;20485;-62
2021/10/05 13:06:37;;;;;;;0.70;0.70;;;;;;;;;;5010372;28;20025;-61
2021/10/05 13:09:06;;;;;;;0.70;0.70;;;;;;;;;;5011185;28;20485;-62
2021/10/05 13:11:32;;;;;;;0.70;0.60;;;;;;;;;;4993365;28;20022;-61
2021/10/05 13:13:57;;;;;;;1.33;0.90;;;;;;;;;;5023976;28;20022;-61
2021/10/05 13:16:23;;;;;;;1.42;0.90;;;;;;;;;;5029171;28;20037;-62
2021/10/05 13:18:48;;;;;;;1.30;1.20;;;;;;;;;;5017584;28;20508;-62
2021/10/05 13:21:13;;;;;;;1.75;1.20;;;;;;;;;;5033959;28;20650;-61
2021/10/05 13:23:39;;;;;;;1.27;1.17;;;;;;;;;;5015870;28;20037;-61
2021/10/05 13:26:04;;;;;;;2.05;1.15;;;;;;;;;;5016054;28;20017;-61
2021/10/05 13:28:29;;;;;;;1.88;1.30;;;;;;;;;;5034199;28;20026;-60
2021/10/05 13:30:55;;;;;;;1.23;1.05;;;;;;;;;;5033315;28;20036;-60
2021/10/05 13:33:21;;;;;;;1.70;1.30;;;;;;;;;;5033987;28;20538;-60
2021/10/05 13:35:48;;;;;;;1.13;1.02;;;;;;;;;;5033081;28;20108;-60
2021/10/05 13:38:15;;;;;;;2.20;1.38;;;;;;;;;;5033728;28;20032;-60
2021/10/05 13:40:43;;;;;;;3.50;1.48;;;;;;;;;;5025890;28;20061;-60
2021/10/05 13:43:19;;;;;;;1.65;1.27;;;;;;;;;;5012650;28;20378;-60
2021/10/05 13:45:47;;;;;;;1.38;1.27;;;;;;;;;;5012997;28;20033;-60
2021/10/05 13:48:13;;;;;;;1.17;1.08;;;;;;;;;;5026407;28;20075;-59
2021/10/05 13:50:39;;;;;;;1.30;1.20;;;;;;;;;;5013260;28;20038;-60
2021/10/05 13:53:05;;;;;;;2.70;1.33;;;;;;;;;;4993785;28;20269;-61
2021/10/05 13:55:31;;;;;;;1.75;1.17;;;;;;;;;;5026579;28;20062;-61
2021/10/05 13:57:56;;;;;;;1.42;1.33;;;;;;;;;;5015379;28;20063;-60
2021/10/05 14:00:21;;;;;;;1.23;1.02;;;;;;;;;;5025391;28;20052;-61
2021/10/05 14:02:47;;;;;;;1.40;1.30;;;;;;;;;;4994087;28;20062;-60
2021/10/05 14:05:18;;;;;;;1.20;1.10;;;;;;;;;;5032828;28;20017;-58
2021/10/05 14:07:46;;;;;;;2.15;1.20;;;;;;;;;;5015700;28;20025;-60
2021/10/05 14:10:11;;;;;;;1.45;1.20;;;;;;;;;;5015287;28;20026;-59
2021/10/05 14:12:36;;;;;;;1.37;1.20;;;;;;;;;;5031924;28;20025;-61
2021/10/05 14:15:05;;;;;;;1.30;1.13;;;;;;;;;;5033093;28;20279;-61
2021/10/05 14:17:30;;;;;;;1.02;0.90;;;;;;;;;;5019427;28;20022;-60
2021/10/05 14:19:57;;;;;;;0.90;0.90;;;;;;;;;;5023296;28;20024;-61
2021/10/05 14:22:26;;;;;;;2.60;1.00;;;;;;;;;;4994867;28;20025;-60
2021/10/05 14:24:53;;;;;;;1.10;1.00;;;;;;;;;;5011803;28;20025;-59
2021/10/05 14:27:18;;;;;;;1.15;0.90;;;;;;;;;;5012279;28;20132;-59
2021/10/05 14:29:46;;;;;;;1.65;1.00;;;;;;;;;;5010695;28;20109;-60
2021/10/05 14:32:11;;;;;;;1.20;1.00;;;;;;;;;;4994548;28;20374;-59
2021/10/05 14:34:37;;;;;;;1.85;1.05;;;;;;;;;;5012497;28;20120;-59
2021/10/05 14:37:04;;;;;;;1.15;1.05;;;;;;;;;;5012084;28;20033;-61
2021/10/05 14:39:32;;;;;;;1.27;0.88;;;;;;;;;;5022501;28;20022;-61
2021/10/05 14:42:03;;;;;;;0.95;0.90;;;;;;;;;;5018012;28;20369;-61
2021/10/05 14:44:31;;;;;;;2.05;1.05;;;;;;;;;;5032325;28;20033;-61